Terminal Aerodrome Forecast
Issued by NWS Mt. Holly, NJ

Home | Current Version | Previous Version | Text Only | Print | Product List | Glossary On
Versions: 1 2 3 4 5 6 7 8 9 10 11 12 13 14
000
FTUS41 KPHI 021723
TAFRDG
TAF
KRDG 021723Z 0218/0318 VRB04KT P6SM SCT060 BKN250
     FM022000 25007KT P6SM FEW060 BKN250
     FM030200 VRB02KT P6SM SCT250
     FM031400 22005KT P6SM SCT250
     FM031700 23008G18KT P6SM SCT070=

USA.gov is the U.S. government's official web portal to all federal, state and local government web resources and services.